Time,TemperatureF,DewpointF,PressureIn,WindDirection,WindDirectionDegrees,WindSpeedMPH,WindSpeedGustMPH,Humidity,HourlyPrecipIn,Conditions,Clouds,dailyrainin,SoftwareType,DateUTC
2013-05-23 00:00:00,47.9,47.9,29.84,WNW,284,3.0,3.0,100,0.00,,,0.00,Wunderground v.1.12,2013-05-23 07:00:00,
2013-05-23 00:10:00,47.9,47.9,29.84,SW,229,4.0,4.0,100,0.00,,,0.00,Wunderground v.1.12,2013-05-23 07:10:00,
2013-05-23 00:20:00,47.9,47.9,29.84,West,265,4.0,5.0,100,0.00,,,0.00,Wunderground v.1.12,2013-05-23 07:20:00,
2013-05-23 00:30:00,47.7,47.7,29.84,WNW,301,2.0,4.0,100,0.00,,,0.00,Wunderground v.1.12,2013-05-23 07:30:00,
2013-05-23 00:40:00,47.7,47.7,29.84,WNW,295,4.0,4.0,100,0.00,,,0.00,Wunderground v.1.12,2013-05-23 07:40:00,
2013-05-23 00:45:00,47.7,47.7,29.84,WNW,292,2.0,7.0,100,0.00,,,-99.99,WeatherLink 5.8.2,2013-05-23 07:45:00,
2013-05-23 00:50:00,47.7,47.7,29.84,WNW,283,4.0,4.0,100,0.00,,,0.00,Wunderground v.1.12,2013-05-23 07:50:00,
2013-05-23 01:00:00,47.7,47.7,29.84,WNW,289,4.0,4.0,100,0.00,,,0.00,Wunderground v.1.12,2013-05-23 08:00:00,
2013-05-23 01:10:00,47.6,47.6,29.84,West,278,3.0,4.0,100,0.00,,,0.00,Wunderground v.1.12,2013-05-23 08:10:00,
2013-05-23 01:20:00,47.7,47.7,29.84,WSW,237,3.0,5.0,100,0.00,,,0.00,Wunderground v.1.12,2013-05-23 08:20:00,
2013-05-23 01:30:00,47.6,47.6,29.84,WNW,291,4.0,4.0,100,0.00,,,0.00,Wunderground v.1.12,2013-05-23 08:30:00,
2013-05-23 01:40:00,47.4,47.4,29.84,WNW,282,2.0,2.0,100,0.00,,,0.00,Wunderground v.1.12,2013-05-23 08:40:00,
2013-05-23 01:50:00,47.3,47.3,29.83,West,281,3.0,4.0,100,0.00,,,0.00,Wunderground v.1.12,2013-05-23 08:50:00,
2013-05-23 02:00:00,47.3,47.3,29.83,West,277,3.0,3.0,100,0.00,,,0.00,Wunderground v.1.12,2013-05-23 09:00:00,
2013-05-23 02:10:00,47.3,47.3,29.83,West,265,4.0,4.0,100,0.00,,,0.00,Wunderground v.1.12,2013-05-23 09:10:00,
2013-05-23 02:20:00,47.3,47.3,29.82,West,269,4.0,4.0,100,0.00,,,0.00,Wunderground v.1.12,2013-05-23 09:20:00,
2013-05-23 02:30:00,47.3,47.3,29.82,WNW,293,6.0,6.0,100,0.00,,,0.00,Wunderground v.1.12,2013-05-23 09:30:00,
2013-05-23 02:40:00,47.3,47.3,29.82,West,263,6.0,6.0,100,0.00,,,0.00,Wunderground v.1.12,2013-05-23 09:40:00,
2013-05-23 02:50:00,47.3,47.3,29.82,WNW,296,4.0,7.0,100,0.00,,,0.00,Wunderground v.1.12,2013-05-23 09:50:00,
2013-05-23 03:00:00,47.3,47.3,29.82,West,266,5.0,5.0,100,0.00,,,0.00,Wunderground v.1.12,2013-05-23 10:00:00,
2013-05-23 03:10:00,47.1,47.1,29.82,WNW,288,5.0,5.0,100,0.00,,,0.00,Wunderground v.1.12,2013-05-23 10:10:00,
2013-05-23 03:20:00,47.1,47.1,29.82,NW,309,5.0,5.0,100,0.00,,,0.00,Wunderground v.1.12,2013-05-23 10:20:00,
2013-05-23 03:30:00,47.1,47.1,29.82,WSW,241,5.0,6.0,100,0.00,,,0.00,Wunderground v.1.12,2013-05-23 10:30:00,
2013-05-23 03:40:00,47.1,47.1,29.82,West,267,6.0,7.0,100,0.00,,,0.00,Wunderground v.1.12,2013-05-23 10:40:00,
2013-05-23 03:50:00,47.1,47.1,29.82,West,267,6.0,8.0,100,0.00,,,0.00,Wunderground v.1.12,2013-05-23 10:50:00,
2013-05-23 04:00:00,47.1,47.1,29.82,West,261,7.0,7.0,100,0.00,,,0.00,Wunderground v.1.12,2013-05-23 11:00:00,
2013-05-23 04:10:00,47.0,47.0,29.82,WNW,287,6.0,6.0,100,0.00,,,0.00,Wunderground v.1.12,2013-05-23 11:10:00,
2013-05-23 04:20:00,46.8,46.8,29.82,West,275,5.0,5.0,100,0.00,,,0.00,Wunderground v.1.12,2013-05-23 11:20:00,
2013-05-23 04:30:00,47.0,47.0,29.82,WNW,296,6.0,6.0,100,0.00,,,0.00,Wunderground v.1.12,2013-05-23 11:30:00,
2013-05-23 04:40:00,46.8,46.8,29.82,WNW,295,5.0,6.0,100,0.00,,,0.00,Wunderground v.1.12,2013-05-23 11:40:00,
2013-05-23 04:50:00,46.5,46.5,29.83,WNW,286,4.0,4.0,100,0.00,,,0.00,Wunderground v.1.12,2013-05-23 11:50:00,
2013-05-23 05:00:00,46.4,46.4,29.83,WNW,302,3.0,3.0,100,0.00,,,0.00,Wunderground v.1.12,2013-05-23 12:00:00,
2013-05-23 05:10:00,46.2,46.2,29.83,WNW,283,3.0,3.0,100,0.00,,,0.00,Wunderground v.1.12,2013-05-23 12:10:00,
2013-05-23 05:20:00,46.1,46.1,29.83,WNW,294,2.0,2.0,100,0.00,,,0.00,Wunderground v.1.12,2013-05-23 12:20:00,
2013-05-23 05:30:00,46.1,46.1,29.83,West,275,3.0,3.0,100,0.00,,,0.00,Wunderground v.1.12,2013-05-23 12:30:00,
2013-05-23 05:40:00,46.2,46.2,29.83,WNW,293,3.0,4.0,100,0.00,,,0.00,Wunderground v.1.12,2013-05-23 12:40:00,
2013-05-23 05:50:00,46.1,46.1,29.83,WNW,286,4.0,7.0,100,0.00,,,0.00,Wunderground v.1.12,2013-05-23 12:50:00,
2013-05-23 06:00:00,46.1,46.1,29.83,West,270,3.0,5.0,100,0.00,,,0.00,Wunderground v.1.12,2013-05-23 13:00:00,
2013-05-23 06:10:00,46.2,46.2,29.84,WNW,287,4.0,5.0,100,0.00,,,0.00,Wunderground v.1.12,2013-05-23 13:10:00,
2013-05-23 06:20:00,46.4,46.4,29.84,WNW,294,3.0,3.0,100,0.00,,,0.00,Wunderground v.1.12,2013-05-23 13:20:00,
2013-05-23 06:30:00,46.2,46.2,29.84,WNW,299,1.0,1.0,100,0.00,,,0.00,Wunderground v.1.12,2013-05-23 13:30:00,
2013-05-23 06:40:00,46.5,46.5,29.84,WNW,292,4.0,4.0,100,0.00,,,0.00,Wunderground v.1.12,2013-05-23 13:40:00,
2013-05-23 06:50:00,47.1,47.1,29.84,WNW,294,4.0,6.0,100,0.00,,,0.00,Wunderground v.1.12,2013-05-23 13:50:00,
2013-05-23 07:00:00,47.4,47.4,29.84,WNW,295,2.0,3.0,100,0.00,,,0.00,Wunderground v.1.12,2013-05-23 14:00:00,
2013-05-23 07:10:00,47.9,47.9,29.84,WNW,282,2.0,2.0,100,0.00,,,0.00,Wunderground v.1.12,2013-05-23 14:10:00,
2013-05-23 07:20:00,48.3,48.3,29.84,WNW,282,3.0,5.0,100,0.00,,,0.00,Wunderground v.1.12,2013-05-23 14:20:00,
2013-05-23 07:30:00,48.6,48.6,29.84,WNW,283,4.0,8.0,100,0.00,,,0.00,Wunderground v.1.12,2013-05-23 14:30:00,
2013-05-23 07:40:00,49.1,49.1,29.85,NW,320,5.0,5.0,100,0.00,,,0.00,Wunderground v.1.12,2013-05-23 14:40:00,
2013-05-23 07:50:00,49.5,49.5,29.85,WNW,289,4.0,4.0,100,0.00,,,0.00,Wunderground v.1.12,2013-05-23 14:50:00,
2013-05-23 08:00:00,50.1,50.1,29.85,WNW,295,4.0,7.0,100,0.00,,,0.00,Wunderground v.1.12,2013-05-23 15:00:00,
2013-05-23 08:10:00,50.8,50.8,29.85,WNW,293,4.0,6.0,100,0.00,,,0.00,Wunderground v.1.12,2013-05-23 15:10:00,
2013-05-23 08:20:00,51.3,51.3,29.85,WNW,289,5.0,5.0,100,0.00,,,0.00,Wunderground v.1.12,2013-05-23 15:20:00,
2013-05-23 08:30:00,52.0,52.0,29.85,NW,304,4.0,8.0,100,0.00,,,0.00,Wunderground v.1.12,2013-05-23 15:30:00,
2013-05-23 08:40:00,52.6,52.6,29.85,WNW,298,5.0,5.0,100,0.00,,,0.00,Wunderground v.1.12,2013-05-23 15:40:00,
2013-05-23 08:50:00,53.6,53.6,29.86,WNW,295,3.0,9.0,100,0.00,,,0.00,Wunderground v.1.12,2013-05-23 15:50:00,
2013-05-23 09:00:00,53.8,53.8,29.86,SSW,196,5.0,5.0,100,0.00,,,0.00,Wunderground v.1.12,2013-05-23 16:00:00,
2013-05-23 09:10:00,54.2,54.2,29.87,West,281,4.0,5.0,100,0.00,,,0.00,Wunderground v.1.12,2013-05-23 16:10:00,
2013-05-23 09:20:00,54.5,54.5,29.87,WNW,289,4.0,5.0,100,0.00,,,0.00,Wunderground v.1.12,2013-05-23 16:20:00,
2013-05-23 09:30:00,54.8,54.8,29.87,West,279,4.0,5.0,100,0.00,,,0.00,Wunderground v.1.12,2013-05-23 16:30:00,
2013-05-23 09:40:00,55.6,55.6,29.87,SW,218,2.0,8.0,100,0.00,,,0.00,Wunderground v.1.12,2013-05-23 16:40:00,
2013-05-23 09:50:00,55.7,55.7,29.87,SSW,192,3.0,3.0,100,0.00,,,0.00,Wunderground v.1.12,2013-05-23 16:50:00,
2013-05-23 10:00:00,56.9,56.9,29.87,WNW,292,2.0,2.0,100,0.00,,,0.00,Wunderground v.1.12,2013-05-23 17:00:00,
2013-05-23 10:10:00,57.3,57.3,29.87,West,273,2.0,2.0,100,0.00,,,0.00,Wunderground v.1.12,2013-05-23 17:10:00,
2013-05-23 10:20:00,58.0,58.0,29.87,West,263,1.0,3.0,100,0.00,,,0.00,Wunderground v.1.12,2013-05-23 17:20:00,
2013-05-23 10:30:00,58.4,58.4,29.87,SW,223,2.0,2.0,100,0.00,,,0.00,Wunderground v.1.12,2013-05-23 17:30:00,
2013-05-23 10:40:00,58.7,58.7,29.87,SW,228,4.0,5.0,100,0.00,,,0.00,Wunderground v.1.12,2013-05-23 17:40:00,
2013-05-23 10:50:00,58.7,58.7,29.87,SE,127,5.0,6.0,100,0.00,,,0.00,Wunderground v.1.12,2013-05-23 17:50:00,
2013-05-23 11:00:00,60.2,60.2,29.87,SSW,196,2.0,2.0,100,0.00,,,0.00,Wunderground v.1.12,2013-05-23 18:00:00,
2013-05-23 11:10:00,61.3,61.3,29.88,WSW,256,2.0,2.0,100,0.00,,,0.00,Wunderground v.1.12,2013-05-23 18:10:00,
2013-05-23 11:20:00,61.2,61.2,29.88,WNW,300,3.0,3.0,100,0.00,,,0.00,Wunderground v.1.12,2013-05-23 18:20:00,
2013-05-23 11:30:00,62.7,62.7,29.88,West,279,2.0,5.0,100,0.00,,,0.00,Wunderground v.1.12,2013-05-23 18:30:00,
2013-05-23 11:40:00,63.1,63.1,29.89,NW,311,3.0,3.0,100,0.00,,,0.00,Wunderground v.1.12,2013-05-23 18:40:00,
2013-05-23 11:50:00,62.4,62.4,29.90,SW,226,5.0,8.0,100,0.00,,,0.00,Wunderground v.1.12,2013-05-23 18:50:00,
2013-05-23 12:00:00,62.3,62.3,29.90,WNW,286,5.0,5.0,100,0.00,,,0.00,Wunderground v.1.12,2013-05-23 19:00:00,
2013-05-23 12:10:00,63.4,63.4,29.90,SW,227,3.0,8.0,100,0.00,,,0.00,Wunderground v.1.12,2013-05-23 19:10:00,
2013-05-23 12:20:00,61.5,61.5,29.90,SSW,204,6.0,6.0,100,0.00,,,0.00,Wunderground v.1.12,2013-05-23 19:20:00,
2013-05-23 12:30:00,62.7,62.7,29.90,WNW,301,4.0,6.0,100,0.00,,,0.00,Wunderground v.1.12,2013-05-23 19:30:00,
2013-05-23 12:40:00,62.9,62.9,29.90,WNW,286,6.0,6.0,100,0.00,,,0.00,Wunderground v.1.12,2013-05-23 19:40:00,
2013-05-23 12:50:00,63.2,63.2,29.90,SW,226,4.0,7.0,100,0.00,,,0.00,Wunderground v.1.12,2013-05-23 19:50:00,
2013-05-23 13:00:00,63.4,63.4,29.90,SSW,203,5.0,5.0,100,0.00,,,0.00,Wunderground v.1.12,2013-05-23 20:00:00,
2013-05-23 13:10:00,63.4,63.4,29.90,WNW,302,5.0,5.0,100,0.00,,,0.00,Wunderground v.1.12,2013-05-23 20:10:00,
2013-05-23 13:20:00,63.7,63.7,29.90,WNW,288,6.0,6.0,100,0.00,,,0.00,Wunderground v.1.12,2013-05-23 20:20:00,
2013-05-23 13:30:00,63.7,63.7,29.90,NW,306,6.0,6.0,100,0.00,,,0.00,Wunderground v.1.12,2013-05-23 20:30:00,
2013-05-23 13:40:00,63.9,63.9,29.91,WNW,303,7.0,7.0,100,0.00,,,0.00,Wunderground v.1.12,2013-05-23 20:40:00,
2013-05-23 13:50:00,63.2,63.2,29.91,NW,313,7.0,9.0,100,0.00,,,0.00,Wunderground v.1.12,2013-05-23 20:50:00,
2013-05-23 14:00:00,61.8,61.8,29.91,WNW,294,9.0,9.0,100,0.00,,,0.00,Wunderground v.1.12,2013-05-23 21:00:00,
2013-05-23 14:10:00,62.4,62.4,29.91,WNW,298,8.0,8.0,100,0.00,,,0.00,Wunderground v.1.12,2013-05-23 21:10:00,
2013-05-23 14:20:00,63.2,63.2,29.91,NW,309,7.0,11.0,100,0.00,,,0.00,Wunderground v.1.12,2013-05-23 21:20:00,
2013-05-23 14:30:00,63.2,63.2,29.91,West,275,8.0,8.0,100,0.00,,,0.00,Wunderground v.1.12,2013-05-23 21:30:00,
2013-05-23 14:40:00,62.7,62.7,29.91,WNW,298,8.0,8.0,100,0.00,,,0.00,Wunderground v.1.12,2013-05-23 21:40:00,
2013-05-23 14:50:00,62.7,62.7,29.92,WNW,293,7.0,14.0,100,0.00,,,0.00,Wunderground v.1.12,2013-05-23 21:50:00,
2013-05-23 15:00:00,61.6,61.6,29.92,NW,318,8.0,8.0,100,0.00,,,0.00,Wunderground v.1.12,2013-05-23 22:00:00,
2013-05-23 15:10:00,62.0,62.0,29.91,West,279,7.0,7.0,100,0.00,,,0.00,Wunderground v.1.12,2013-05-23 22:10:00,
2013-05-23 15:20:00,64.0,64.0,29.91,WNW,291,5.0,17.0,100,0.00,,,0.00,Wunderground v.1.12,2013-05-23 22:20:00,
2013-05-23 15:30:00,63.1,63.1,29.91,West,277,8.0,8.0,100,0.00,,,0.00,Wunderground v.1.12,2013-05-23 22:30:00,
2013-05-23 15:40:00,61.6,61.6,29.90,SW,217,8.0,8.0,100,0.00,,,0.00,Wunderground v.1.12,2013-05-23 22:40:00,
2013-05-23 15:50:00,63.1,63.1,29.90,West,281,5.0,6.0,100,0.00,,,0.00,Wunderground v.1.12,2013-05-23 22:50:00,
2013-05-23 16:00:00,63.2,63.2,29.90,SW,227,6.0,7.0,100,0.00,,,0.00,Wunderground v.1.12,2013-05-23 23:00:00,
2013-05-23 16:10:00,63.7,63.7,29.90,SSW,209,5.0,5.0,100,0.00,,,0.00,Wunderground v.1.12,2013-05-23 23:10:00,
2013-05-23 16:20:00,62.6,62.6,29.90,SW,225,5.0,5.0,100,0.00,,,0.00,Wunderground v.1.12,2013-05-23 23:20:00,
2013-05-23 16:30:00,62.4,62.4,29.90,WSW,243,6.0,6.0,100,0.00,,,0.00,Wunderground v.1.12,2013-05-23 23:30:00,
2013-05-23 16:40:00,62.9,62.9,29.90,SW,230,5.0,5.0,100,0.00,,,0.00,Wunderground v.1.12,2013-05-23 23:40:00,
2013-05-23 16:50:00,61.8,61.8,29.90,SW,220,7.0,9.0,100,0.00,,,0.00,Wunderground v.1.12,2013-05-23 23:50:00,
2013-05-23 17:00:00,62.3,62.3,29.90,SSW,198,5.0,8.0,100,0.00,,,0.00,Wunderground v.1.12,2013-05-24 00:00:00,
2013-05-23 17:10:00,60.4,60.4,29.90,SW,221,8.0,8.0,100,0.00,,,0.00,Wunderground v.1.12,2013-05-24 00:10:00,
2013-05-23 17:20:00,60.5,60.5,29.91,West,269,5.0,5.0,100,0.00,,,0.00,Wunderground v.1.12,2013-05-24 00:20:00,
2013-05-23 17:30:00,59.2,59.2,29.91,SSW,206,7.0,7.0,100,0.00,,,0.00,Wunderground v.1.12,2013-05-24 00:30:00,
2013-05-23 17:40:00,59.6,59.6,29.91,SW,233,4.0,4.0,100,0.00,,,0.00,Wunderground v.1.12,2013-05-24 00:40:00,
2013-05-23 17:50:00,59.6,59.6,29.90,South,190,4.0,7.0,100,0.00,,,0.00,Wunderground v.1.12,2013-05-24 00:50:00,
2013-05-23 18:00:00,58.6,58.6,29.90,SW,221,5.0,5.0,100,0.00,,,0.00,Wunderground v.1.12,2013-05-24 01:00:00,
2013-05-23 18:10:00,57.8,57.8,29.90,South,169,5.0,5.0,100,0.00,,,0.00,Wunderground v.1.12,2013-05-24 01:10:00,
2013-05-23 18:20:00,58.1,58.1,29.90,West,270,3.0,11.0,100,0.00,,,-99.99,WeatherLink 5.8.2,2013-05-24 01:20:00,
2013-05-23 18:30:00,58.3,58.3,29.90,South,182,3.0,3.0,100,0.00,,,0.00,Wunderground v.1.12,2013-05-24 01:30:00,
2013-05-23 18:40:00,58.1,58.1,29.90,SSW,200,3.0,9.0,100,0.00,,,0.00,Wunderground v.1.12,2013-05-24 01:40:00,
2013-05-23 18:50:00,58.0,58.0,29.90,SSW,205,3.0,3.0,100,0.00,,,0.00,Wunderground v.1.12,2013-05-24 01:50:00,
2013-05-23 19:00:00,56.9,56.9,29.90,SW,222,4.0,4.0,100,0.00,,,0.00,Wunderground v.1.12,2013-05-24 02:00:00,
2013-05-23 19:10:00,55.9,55.9,29.91,SW,217,4.0,8.0,100,0.00,,,0.00,Wunderground v.1.12,2013-05-24 02:10:00,
2013-05-23 19:20:00,54.8,54.8,29.91,SW,232,4.0,4.0,100,0.00,,,0.00,Wunderground v.1.12,2013-05-24 02:20:00,
2013-05-23 19:30:00,53.9,53.9,29.91,SW,219,2.0,2.0,100,0.00,,,0.00,Wunderground v.1.12,2013-05-24 02:30:00,
2013-05-23 19:40:00,53.2,53.2,29.91,SW,223,2.0,7.0,100,0.00,,,0.00,Wunderground v.1.12,2013-05-24 02:40:00,
2013-05-23 19:50:00,52.6,52.6,29.91,SSW,195,4.0,4.0,100,0.00,,,0.00,Wunderground v.1.12,2013-05-24 02:50:00,
2013-05-23 20:00:00,52.2,52.2,29.91,WNW,288,1.0,5.0,100,0.00,,,0.00,Wunderground v.1.12,2013-05-24 03:00:00,
2013-05-23 20:10:00,51.7,51.7,29.91,SW,234,4.0,8.0,100,0.00,,,0.00,Wunderground v.1.12,2013-05-24 03:10:00,
2013-05-23 20:20:00,51.7,51.7,29.90,WSW,244,2.0,2.0,100,0.00,,,0.00,Wunderground v.1.12,2013-05-24 03:20:00,
2013-05-23 20:30:00,51.4,51.4,29.90,South,180,0.0,0.0,100,0.00,,,0.00,Wunderground v.1.12,2013-05-24 03:30:00,
2013-05-23 20:40:00,51.1,51.1,29.90,SW,218,0.0,0.0,100,0.00,,,0.00,Wunderground v.1.12,2013-05-24 03:40:00,
2013-05-23 20:50:00,50.8,50.8,29.90,South,187,1.0,1.0,100,0.00,,,0.00,Wunderground v.1.12,2013-05-24 03:50:00,
2013-05-23 21:00:00,50.7,50.7,29.90,SW,221,1.0,1.0,100,0.00,,,0.00,Wunderground v.1.12,2013-05-24 04:00:00,
2013-05-23 21:03:00,50.7,50.7,29.90,SW,225,0.0,2.0,100,0.00,,,-99.99,WeatherLink 5.8.2,2013-05-24 04:03:00,
2013-05-23 21:10:00,50.5,50.5,29.91,West,279,0.0,3.0,100,0.00,,,0.00,Wunderground v.1.12,2013-05-24 04:10:00,
2013-05-23 21:13:00,50.5,50.5,29.91,SW,225,1.0,3.0,100,0.00,,,-99.99,WeatherLink 5.8.2,2013-05-24 04:13:00,
2013-05-23 21:20:00,50.2,50.2,29.91,West,279,1.0,1.0,100,0.00,,,0.00,Wunderground v.1.12,2013-05-24 04:20:00,
2013-05-23 21:23:00,50.2,50.2,29.91,West,270,1.0,5.0,100,0.00,,,-99.99,WeatherLink 5.8.2,2013-05-24 04:23:00,
2013-05-23 21:30:00,50.4,50.4,29.91,WNW,298,2.0,2.0,100,0.00,,,0.00,Wunderground v.1.12,2013-05-24 04:30:00,
2013-05-23 21:33:00,50.4,50.4,29.91,WNW,292,1.0,7.0,100,0.00,,,-99.99,WeatherLink 5.8.2,2013-05-24 04:33:00,
2013-05-23 21:40:00,50.2,50.2,29.92,SSW,202,1.0,2.0,100,0.00,,,0.00,Wunderground v.1.12,2013-05-24 04:40:00,
2013-05-23 21:50:00,49.9,49.9,29.92,West,281,1.0,1.0,100,0.00,,,0.00,Wunderground v.1.12,2013-05-24 04:50:00,
2013-05-23 22:00:00,49.8,49.8,29.92,WNW,286,2.0,2.0,100,0.00,,,0.00,Wunderground v.1.12,2013-05-24 05:00:00,
2013-05-23 22:10:00,49.6,49.6,29.92,SSW,210,1.0,1.0,100,0.00,,,0.00,Wunderground v.1.12,2013-05-24 05:10:00,
2013-05-23 22:20:00,49.4,49.4,29.93,WNW,294,0.0,0.0,100,0.00,,,0.00,Wunderground v.1.12,2013-05-24 05:20:00,
2013-05-23 22:30:00,49.2,49.2,29.93,WSW,254,0.0,1.0,100,0.00,,,0.00,Wunderground v.1.12,2013-05-24 05:30:00,
2013-05-23 22:40:00,49.1,49.1,29.93,SSW,213,1.0,1.0,100,0.00,,,0.00,Wunderground v.1.12,2013-05-24 05:40:00,
2013-05-23 22:50:00,48.8,48.8,29.92,SW,214,0.0,0.0,100,0.00,,,0.00,Wunderground v.1.12,2013-05-24 05:50:00,
2013-05-23 23:00:00,48.6,48.6,29.92,SW,214,0.0,0.0,100,0.00,,,0.00,Wunderground v.1.12,2013-05-24 06:00:00,
2013-05-23 23:10:00,48.2,48.2,29.92,SW,215,0.0,0.0,100,0.00,,,0.00,Wunderground v.1.12,2013-05-24 06:10:00,
2013-05-23 23:20:00,47.6,47.6,29.91,ESE,106,0.0,0.0,100,0.00,,,0.00,Wunderground v.1.12,2013-05-24 06:20:00,
2013-05-23 23:30:00,46.1,46.1,29.91,ESE,106,0.0,0.0,100,0.00,,,0.00,Wunderground v.1.12,2013-05-24 06:30:00,
2013-05-23 23:40:00,45.2,45.2,29.91,ESE,106,0.0,0.0,100,0.00,,,0.00,Wunderground v.1.12,2013-05-24 06:40:00,
2013-05-23 23:50:00,44.3,44.3,29.91,ESE,106,0.0,0.0,100,0.00,,,0.00,Wunderground v.1.12,2013-05-24 06:50:00,